sensor_id;sensor_type;location;lat;lon;timestamp;pressure;altitude;pressure_sealevel;temperature;humidity
66801;BME280;53703;50.326;19.122;2023-03-01T00:02:34;99904.08;;;17.82;39.08
66801;BME280;53703;50.326;19.122;2023-03-01T00:05:12;99903.05;;;17.81;39.10
66801;BME280;53703;50.326;19.122;2023-03-01T00:08:06;99898.01;;;17.86;39.07
66801;BME280;53703;50.326;19.122;2023-03-01T00:11:10;99902.09;;;17.90;38.68
66801;BME280;53703;50.326;19.122;2023-03-01T00:14:06;99903.79;;;17.84;38.61
66801;BME280;53703;50.326;19.122;2023-03-01T00:17:00;99897.69;;;17.81;38.80
66801;BME280;53703;50.326;19.122;2023-03-01T00:19:54;99897.98;;;17.82;38.84
66801;BME280;53703;50.326;19.122;2023-03-01T00:22:48;99898.89;;;17.81;38.70
66801;BME280;53703;50.326;19.122;2023-03-01T00:25:45;99900.26;;;17.78;39.02
66801;BME280;53703;50.326;19.122;2023-03-01T00:28:38;99901.38;;;17.77;38.71
66801;BME280;53703;50.326;19.122;2023-03-01T00:31:33;99900.92;;;17.75;38.55
66801;BME280;53703;50.326;19.122;2023-03-01T00:34:27;99896.15;;;17.83;38.63
66801;BME280;53703;50.326;19.122;2023-03-01T00:37:21;99901.09;;;17.95;39.09
66801;BME280;53703;50.326;19.122;2023-03-01T00:40:16;99897.72;;;17.99;39.06
66801;BME280;53703;50.326;19.122;2023-03-01T00:43:11;99899.47;;;17.91;39.40
66801;BME280;53703;50.326;19.122;2023-03-01T00:46:08;99894.44;;;17.78;38.91
66801;BME280;53703;50.326;19.122;2023-03-01T00:49:02;99890.76;;;17.82;38.99
66801;BME280;53703;50.326;19.122;2023-03-01T00:51:57;99893.14;;;17.94;38.94
66801;BME280;53703;50.326;19.122;2023-03-01T00:54:53;99890.24;;;17.83;38.74
66801;BME280;53703;50.326;19.122;2023-03-01T00:57:44;99892.86;;;17.80;38.94
66801;BME280;53703;50.326;19.122;2023-03-01T01:00:38;99889.25;;;17.80;38.73
66801;BME280;53703;50.326;19.122;2023-03-01T01:03:32;99891.13;;;17.87;38.72
66801;BME280;53703;50.326;19.122;2023-03-01T01:06:28;99888.19;;;17.83;38.96
66801;BME280;53703;50.326;19.122;2023-03-01T01:09:22;99889.52;;;17.83;38.77
66801;BME280;53703;50.326;19.122;2023-03-01T01:12:16;99887.84;;;17.84;38.99
66801;BME280;53703;50.326;19.122;2023-03-01T01:15:11;99888.10;;;17.84;38.75
66801;BME280;53703;50.326;19.122;2023-03-01T01:18:07;99888.08;;;17.85;38.65
66801;BME280;53703;50.326;19.122;2023-03-01T01:21:05;99885.66;;;17.85;38.68
66801;BME280;53703;50.326;19.122;2023-03-01T01:23:59;99881.02;;;17.85;38.72
66801;BME280;53703;50.326;19.122;2023-03-01T01:26:53;99878.90;;;17.84;38.43
66801;BME280;53703;50.326;19.122;2023-03-01T01:29:47;99872.67;;;17.85;38.41
66801;BME280;53703;50.326;19.122;2023-03-01T01:32:41;99866.97;;;17.98;38.38
66801;BME280;53703;50.326;19.122;2023-03-01T01:35:35;99861.26;;;17.92;38.66
66801;BME280;53703;50.326;19.122;2023-03-01T01:38:29;99852.34;;;17.87;38.68
66801;BME280;53703;50.326;19.122;2023-03-01T01:41:25;99850.98;;;17.90;38.68
66801;BME280;53703;50.326;19.122;2023-03-01T01:44:18;99848.02;;;17.86;38.31
66801;BME280;53703;50.326;19.122;2023-03-01T01:47:17;99848.48;;;17.83;38.10
66801;BME280;53703;50.326;19.122;2023-03-01T01:50:33;99849.46;;;17.82;38.46
66801;BME280;53703;50.326;19.122;2023-03-01T01:53:30;99842.80;;;17.81;38.57
66801;BME280;53703;50.326;19.122;2023-03-01T01:56:25;99839.20;;;17.93;38.70
66801;BME280;53703;50.326;19.122;2023-03-01T01:59:21;99833.78;;;18.10;38.30
66801;BME280;53703;50.326;19.122;2023-03-01T02:02:18;99836.77;;;17.83;38.29
66801;BME280;53703;50.326;19.122;2023-03-01T02:05:24;99836.46;;;17.80;38.30
66801;BME280;53703;50.326;19.122;2023-03-01T02:08:22;99840.79;;;17.80;38.26
66801;BME280;53703;50.326;19.122;2023-03-01T02:11:18;99839.05;;;17.87;38.31
66801;BME280;53703;50.326;19.122;2023-03-01T02:14:12;99838.06;;;17.80;38.32
66801;BME280;53703;50.326;19.122;2023-03-01T02:17:07;99840.33;;;17.78;38.31
66801;BME280;53703;50.326;19.122;2023-03-01T02:20:19;99843.20;;;17.76;38.16
66801;BME280;53703;50.326;19.122;2023-03-01T02:23:16;99845.58;;;17.74;38.27
66801;BME280;53703;50.326;19.122;2023-03-01T02:26:20;99842.95;;;17.71;38.16
66801;BME280;53703;50.326;19.122;2023-03-01T02:29:07;99846.33;;;17.71;38.12
66801;BME280;53703;50.326;19.122;2023-03-01T02:32:04;99854.04;;;17.72;38.18
66801;BME280;53703;50.326;19.122;2023-03-01T02:34:58;99854.06;;;17.69;38.27
66801;BME280;53703;50.326;19.122;2023-03-01T02:37:52;99856.20;;;17.69;38.19
66801;BME280;53703;50.326;19.122;2023-03-01T02:40:51;99853.05;;;17.69;38.10
66801;BME280;53703;50.326;19.122;2023-03-01T02:43:46;99849.95;;;17.67;38.08
66801;BME280;53703;50.326;19.122;2023-03-01T02:46:49;99845.27;;;17.65;38.26
66801;BME280;53703;50.326;19.122;2023-03-01T02:49:43;99852.86;;;17.66;38.17
66801;BME280;53703;50.326;19.122;2023-03-01T02:52:44;99852.04;;;17.62;38.14
66801;BME280;53703;50.326;19.122;2023-03-01T02:55:41;99850.33;;;17.62;38.13
66801;BME280;53703;50.326;19.122;2023-03-01T02:58:35;99851.27;;;17.62;38.02
66801;BME280;53703;50.326;19.122;2023-03-01T03:01:37;99849.54;;;17.61;38.00
66801;BME280;53703;50.326;19.122;2023-03-01T03:04:31;99849.56;;;17.60;38.03
66801;BME280;53703;50.326;19.122;2023-03-01T03:07:25;99846.29;;;17.58;38.17
66801;BME280;53703;50.326;19.122;2023-03-01T03:10:22;99840.35;;;17.55;38.06
66801;BME280;53703;50.326;19.122;2023-03-01T03:13:15;99841.29;;;17.57;37.97
66801;BME280;53703;50.326;19.122;2023-03-01T03:16:10;99842.02;;;17.57;37.91
66801;BME280;53703;50.326;19.122;2023-03-01T03:19:04;99838.50;;;17.54;38.14
66801;BME280;53703;50.326;19.122;2023-03-01T03:21:58;99832.35;;;17.52;38.06
66801;BME280;53703;50.326;19.122;2023-03-01T03:24:52;99835.23;;;17.50;38.00
66801;BME280;53703;50.326;19.122;2023-03-01T03:27:48;99832.34;;;17.51;37.96
66801;BME280;53703;50.326;19.122;2023-03-01T03:30:48;99824.35;;;17.50;37.94
66801;BME280;53703;50.326;19.122;2023-03-01T03:33:42;99820.07;;;17.51;37.81
66801;BME280;53703;50.326;19.122;2023-03-01T03:36:23;99818.89;;;17.48;37.96
66801;BME280;53703;50.326;19.122;2023-03-01T03:39:17;99816.21;;;17.45;38.03
66801;BME280;53703;50.326;19.122;2023-03-01T03:42:12;99817.40;;;17.47;37.91
66801;BME280;53703;50.326;19.122;2023-03-01T03:45:08;99820.41;;;17.45;37.75
66801;BME280;53703;50.326;19.122;2023-03-01T03:48:04;99822.34;;;17.43;37.92
66801;BME280;53703;50.326;19.122;2023-03-01T03:50:59;99822.04;;;17.40;37.84
66801;BME280;53703;50.326;19.122;2023-03-01T03:53:53;99820.89;;;17.37;37.93
66801;BME280;53703;50.326;19.122;2023-03-01T03:56:47;99827.19;;;17.36;37.93
66801;BME280;53703;50.326;19.122;2023-03-01T03:59:23;99824.13;;;17.36;37.77
66801;BME280;53703;50.326;19.122;2023-03-01T04:02:17;99820.02;;;17.35;37.85
66801;BME280;53703;50.326;19.122;2023-03-01T04:05:19;99819.37;;;17.34;37.88
66801;BME280;53703;50.326;19.122;2023-03-01T04:08:13;99823.48;;;17.34;37.63
66801;BME280;53703;50.326;19.122;2023-03-01T04:11:08;99827.15;;;17.32;37.76
66801;BME280;53703;50.326;19.122;2023-03-01T04:14:20;99824.09;;;17.29;37.85
66801;BME280;53703;50.326;19.122;2023-03-01T04:17:14;99830.94;;;17.29;37.84
66801;BME280;53703;50.326;19.122;2023-03-01T04:20:12;99826.34;;;17.30;37.69
66801;BME280;53703;50.326;19.122;2023-03-01T04:23:13;99824.85;;;17.27;37.65
66801;BME280;53703;50.326;19.122;2023-03-01T04:26:08;99819.38;;;17.23;37.79
66801;BME280;53703;50.326;19.122;2023-03-01T04:29:02;99818.23;;;17.21;37.92
66801;BME280;53703;50.326;19.122;2023-03-01T04:31:56;99819.67;;;17.20;37.84
66801;BME280;53703;50.326;19.122;2023-03-01T04:34:52;99818.89;;;17.23;37.72
66801;BME280;53703;50.326;19.122;2023-03-01T04:37:46;99819.89;;;17.16;37.76
66801;BME280;53703;50.326;19.122;2023-03-01T04:40:40;99816.05;;;17.13;38.01
66801;BME280;53703;50.326;19.122;2023-03-01T04:43:36;99814.73;;;17.14;37.77
66801;BME280;53703;50.326;19.122;2023-03-01T04:46:30;99810.61;;;17.14;37.87
66801;BME280;53703;50.326;19.122;2023-03-01T04:49:25;99808.58;;;17.12;37.85
66801;BME280;53703;50.326;19.122;2023-03-01T04:52:19;99805.73;;;17.09;37.88
66801;BME280;53703;50.326;19.122;2023-03-01T04:55:13;99801.11;;;17.07;37.83
66801;BME280;53703;50.326;19.122;2023-03-01T04:58:07;99795.52;;;17.07;37.85
66801;BME280;53703;50.326;19.122;2023-03-01T05:01:01;99799.13;;;17.04;37.99
66801;BME280;53703;50.326;19.122;2023-03-01T05:03:55;99799.04;;;17.02;37.93
66801;BME280;53703;50.326;19.122;2023-03-01T05:06:55;99802.81;;;17.04;37.74
66801;BME280;53703;50.326;19.122;2023-03-01T05:09:51;99802.60;;;17.05;37.80
66801;BME280;53703;50.326;19.122;2023-03-01T05:12:47;99801.79;;;17.02;37.77
66801;BME280;53703;50.326;19.122;2023-03-01T05:15:40;99799.48;;;16.99;37.70
66801;BME280;53703;50.326;19.122;2023-03-01T05:18:36;99796.22;;;16.97;37.73
66801;BME280;53703;50.326;19.122;2023-03-01T05:21:30;99789.48;;;16.95;37.70
66801;BME280;53703;50.326;19.122;2023-03-01T05:24:23;99792.11;;;16.93;37.78
66801;BME280;53703;50.326;19.122;2023-03-01T05:27:17;99782.79;;;16.92;37.66
66801;BME280;53703;50.326;19.122;2023-03-01T05:30:17;99786.91;;;16.97;37.66
66801;BME280;53703;50.326;19.122;2023-03-01T05:33:11;99792.33;;;16.97;37.64
66801;BME280;53703;50.326;19.122;2023-03-01T05:36:09;99796.21;;;16.91;37.59
66801;BME280;53703;50.326;19.122;2023-03-01T05:39:03;99807.56;;;16.90;37.57
66801;BME280;53703;50.326;19.122;2023-03-01T05:41:59;99812.33;;;16.91;37.40
66801;BME280;53703;50.326;19.122;2023-03-01T05:44:54;99815.42;;;16.91;37.79
66801;BME280;53703;50.326;19.122;2023-03-01T05:47:49;99811.47;;;16.89;37.59
66801;BME280;53703;50.326;19.122;2023-03-01T05:50:45;99814.30;;;16.86;37.53
66801;BME280;53703;50.326;19.122;2023-03-01T05:53:39;99813.46;;;16.87;37.58
66801;BME280;53703;50.326;19.122;2023-03-01T05:56:22;99812.65;;;16.86;37.59
66801;BME280;53703;50.326;19.122;2023-03-01T05:59:16;99817.02;;;16.86;37.49
66801;BME280;53703;50.326;19.122;2023-03-01T06:02:09;99814.46;;;16.85;37.36
66801;BME280;53703;50.326;19.122;2023-03-01T06:05:04;99817.69;;;16.83;37.34
66801;BME280;53703;50.326;19.122;2023-03-01T06:08:00;99816.34;;;16.82;37.68
66801;BME280;53703;50.326;19.122;2023-03-01T06:10:54;99817.98;;;16.78;37.31
66801;BME280;53703;50.326;19.122;2023-03-01T06:13:48;99819.85;;;16.81;37.55
66801;BME280;53703;50.326;19.122;2023-03-01T06:16:42;99826.73;;;16.79;37.33
66801;BME280;53703;50.326;19.122;2023-03-01T06:19:35;99829.28;;;16.81;37.49
66801;BME280;53703;50.326;19.122;2023-03-01T06:22:12;99832.44;;;16.78;37.27
66801;BME280;53703;50.326;19.122;2023-03-01T06:25:09;99839.79;;;16.77;37.31
66801;BME280;53703;50.326;19.122;2023-03-01T06:28:03;99830.63;;;16.77;37.34
66801;BME280;53703;50.326;19.122;2023-03-01T06:30:57;99828.89;;;16.76;37.42
66801;BME280;53703;50.326;19.122;2023-03-01T06:33:50;99823.29;;;16.72;37.38
66801;BME280;53703;50.326;19.122;2023-03-01T06:36:46;99820.94;;;16.71;37.56
66801;BME280;53703;50.326;19.122;2023-03-01T06:39:40;99820.69;;;16.71;37.61
66801;BME280;53703;50.326;19.122;2023-03-01T06:42:34;99821.48;;;16.69;37.63
66801;BME280;53703;50.326;19.122;2023-03-01T06:45:28;99821.65;;;16.74;37.76
66801;BME280;53703;50.326;19.122;2023-03-01T06:48:22;99821.05;;;16.73;37.48
66801;BME280;53703;50.326;19.122;2023-03-01T06:51:17;99821.71;;;16.79;37.69
66801;BME280;53703;50.326;19.122;2023-03-01T06:54:11;99821.88;;;16.71;37.34
66801;BME280;53703;50.326;19.122;2023-03-01T06:56:54;99814.95;;;16.73;37.56
66801;BME280;53703;50.326;19.122;2023-03-01T06:59:49;99814.74;;;16.70;37.16
66801;BME280;53703;50.326;19.122;2023-03-01T07:02:42;99815.10;;;16.76;37.50
66801;BME280;53703;50.326;19.122;2023-03-01T07:05:37;99815.58;;;16.70;37.25
66801;BME280;53703;50.326;19.122;2023-03-01T07:08:31;99807.14;;;16.82;37.50
66801;BME280;53703;50.326;19.122;2023-03-01T07:11:25;99804.45;;;16.81;37.61
66801;BME280;53703;50.326;19.122;2023-03-01T07:14:19;99801.30;;;16.68;37.31
66801;BME280;53703;50.326;19.122;2023-03-01T07:17:13;99791.10;;;16.42;37.90
66801;BME280;53703;50.326;19.122;2023-03-01T07:20:09;99787.20;;;16.60;37.64
66801;BME280;53703;50.326;19.122;2023-03-01T07:23:04;99783.02;;;16.75;37.43
66801;BME280;53703;50.326;19.122;2023-03-01T07:25:58;99777.45;;;16.69;37.34
66801;BME280;53703;50.326;19.122;2023-03-01T07:28:52;99775.86;;;16.66;37.91
66801;BME280;53703;50.326;19.122;2023-03-01T07:31:46;99780.59;;;16.83;37.62
66801;BME280;53703;50.326;19.122;2023-03-01T07:34:40;99784.36;;;16.86;37.98
66801;BME280;53703;50.326;19.122;2023-03-01T07:37:34;99792.20;;;16.82;37.32
66801;BME280;53703;50.326;19.122;2023-03-01T07:40:28;99795.45;;;16.88;37.83
66801;BME280;53703;50.326;19.122;2023-03-01T07:43:22;99795.29;;;16.99;37.35
66801;BME280;53703;50.326;19.122;2023-03-01T07:46:16;99801.05;;;16.96;37.07
66801;BME280;53703;50.326;19.122;2023-03-01T07:49:11;99805.09;;;16.91;37.43
66801;BME280;53703;50.326;19.122;2023-03-01T07:52:05;99790.36;;;17.17;37.44
66801;BME280;53703;50.326;19.122;2023-03-01T07:54:44;99789.59;;;17.17;37.47
66801;BME280;53703;50.326;19.122;2023-03-01T07:57:38;99790.98;;;17.16;37.93
66801;BME280;53703;50.326;19.122;2023-03-01T08:00:32;99792.69;;;17.04;37.89
66801;BME280;53703;50.326;19.122;2023-03-01T08:03:26;99790.16;;;17.11;37.54
66801;BME280;53703;50.326;19.122;2023-03-01T08:06:20;99790.33;;;17.29;38.69
66801;BME280;53703;50.326;19.122;2023-03-01T08:09:13;99794.62;;;15.78;35.99
66801;BME280;53703;50.326;19.122;2023-03-01T08:12:08;99789.64;;;15.86;35.47
66801;BME280;53703;50.326;19.122;2023-03-01T08:15:02;99783.77;;;15.75;34.17
66801;BME280;53703;50.326;19.122;2023-03-01T08:17:55;99777.61;;;15.96;35.92
66801;BME280;53703;50.326;19.122;2023-03-01T08:20:49;99766.52;;;17.42;33.76
66801;BME280;53703;50.326;19.122;2023-03-01T08:23:43;99765.92;;;17.77;34.06
66801;BME280;53703;50.326;19.122;2023-03-01T08:26:38;99767.40;;;17.79;34.78
66801;BME280;53703;50.326;19.122;2023-03-01T08:29:33;99763.22;;;17.85;35.03
66801;BME280;53703;50.326;19.122;2023-03-01T08:32:27;99766.27;;;17.84;35.25
66801;BME280;53703;50.326;19.122;2023-03-01T08:35:22;99768.80;;;17.61;37.37
66801;BME280;53703;50.326;19.122;2023-03-01T08:38:16;99765.71;;;14.13;37.59
66801;BME280;53703;50.326;19.122;2023-03-01T08:41:10;99765.17;;;13.83;38.08
66801;BME280;53703;50.326;19.122;2023-03-01T08:43:47;99756.13;;;15.14;34.93
66801;BME280;53703;50.326;19.122;2023-03-01T08:46:24;99753.13;;;17.24;34.00
66801;BME280;53703;50.326;19.122;2023-03-01T08:49:19;99753.37;;;17.80;34.42
66801;BME280;53703;50.326;19.122;2023-03-01T08:52:13;99757.49;;;17.69;35.21
66801;BME280;53703;50.326;19.122;2023-03-01T08:55:09;99760.77;;;17.82;35.02
66801;BME280;53703;50.326;19.122;2023-03-01T08:58:03;99757.73;;;18.00;34.94
66801;BME280;53703;50.326;19.122;2023-03-01T09:00:57;99753.80;;;17.99;35.64
66801;BME280;53703;50.326;19.122;2023-03-01T09:03:52;99751.52;;;18.07;35.50
66801;BME280;53703;50.326;19.122;2023-03-01T09:06:45;99756.35;;;18.09;35.49
66801;BME280;53703;50.326;19.122;2023-03-01T09:09:25;99750.95;;;18.02;36.87
66801;BME280;53703;50.326;19.122;2023-03-01T09:12:19;99751.99;;;18.04;37.87
66801;BME280;53703;50.326;19.122;2023-03-01T09:15:13;99753.08;;;18.19;36.31
66801;BME280;53703;50.326;19.122;2023-03-01T09:18:07;99748.39;;;18.30;36.02
66801;BME280;53703;50.326;19.122;2023-03-01T09:21:07;99748.27;;;18.44;36.12
66801;BME280;53703;50.326;19.122;2023-03-01T09:24:01;99747.92;;;18.47;36.03
66801;BME280;53703;50.326;19.122;2023-03-01T09:26:57;99741.20;;;18.46;35.91
66801;BME280;53703;50.326;19.122;2023-03-01T09:29:51;99744.10;;;18.42;35.99
66801;BME280;53703;50.326;19.122;2023-03-01T09:32:45;99744.01;;;18.46;35.88
66801;BME280;53703;50.326;19.122;2023-03-01T09:35:39;99737.27;;;18.43;35.98
66801;BME280;53703;50.326;19.122;2023-03-01T09:38:38;99736.95;;;18.36;36.04
66801;BME280;53703;50.326;19.122;2023-03-01T09:41:59;99729.21;;;18.41;36.15
66801;BME280;53703;50.326;19.122;2023-03-01T09:44:57;99728.95;;;18.44;36.29
66801;BME280;53703;50.326;19.122;2023-03-01T09:47:52;99728.95;;;18.61;35.97
66801;BME280;53703;50.326;19.122;2023-03-01T09:50:46;99729.86;;;18.44;36.16
66801;BME280;53703;50.326;19.122;2023-03-01T09:53:40;99726.34;;;18.34;36.42
66801;BME280;53703;50.326;19.122;2023-03-01T09:56:39;99726.48;;;18.33;36.38
66801;BME280;53703;50.326;19.122;2023-03-01T09:59:46;99725.80;;;18.34;36.50
66801;BME280;53703;50.326;19.122;2023-03-01T10:02:46;99727.19;;;18.42;36.37
66801;BME280;53703;50.326;19.122;2023-03-01T10:05:55;99728.78;;;18.44;36.61
66801;BME280;53703;50.326;19.122;2023-03-01T10:09:04;99725.21;;;18.38;36.80
66801;BME280;53703;50.326;19.122;2023-03-01T10:12:00;99728.64;;;18.50;36.20
66801;BME280;53703;50.326;19.122;2023-03-01T10:15:02;99726.14;;;18.76;36.35
66801;BME280;53703;50.326;19.122;2023-03-01T10:18:01;99723.97;;;18.73;38.01
66801;BME280;53703;50.326;19.122;2023-03-01T10:21:02;99719.26;;;18.89;37.05
66801;BME280;53703;50.326;19.122;2023-03-01T10:23:57;99718.00;;;18.81;37.45
66801;BME280;53703;50.326;19.122;2023-03-01T10:27:04;99708.61;;;18.76;37.08
66801;BME280;53703;50.326;19.122;2023-03-01T10:30:12;99713.44;;;18.71;37.37
66801;BME280;53703;50.326;19.122;2023-03-01T10:33:16;99718.56;;;18.62;37.25
66801;BME280;53703;50.326;19.122;2023-03-01T10:36:12;99718.33;;;18.78;37.46
66801;BME280;53703;50.326;19.122;2023-03-01T10:39:26;99711.08;;;19.20;36.89
66801;BME280;53703;50.326;19.122;2023-03-01T10:42:28;99709.80;;;19.06;36.88
66801;BME280;53703;50.326;19.122;2023-03-01T10:45:35;99704.63;;;18.91;37.29
66801;BME280;53703;50.326;19.122;2023-03-01T10:48:29;99705.08;;;18.79;37.27
66801;BME280;53703;50.326;19.122;2023-03-01T10:51:23;99705.66;;;18.65;36.98
66801;BME280;53703;50.326;19.122;2023-03-01T10:54:22;99706.34;;;18.58;37.37
66801;BME280;53703;50.326;19.122;2023-03-01T10:57:35;99700.95;;;18.66;37.30
66801;BME280;53703;50.326;19.122;2023-03-01T11:00:33;99693.86;;;18.64;37.24
66801;BME280;53703;50.326;19.122;2023-03-01T11:03:43;99693.07;;;18.73;37.01
66801;BME280;53703;50.326;19.122;2023-03-01T11:06:39;99685.58;;;18.63;37.14
66801;BME280;53703;50.326;19.122;2023-03-01T11:09:35;99684.83;;;18.63;37.20
66801;BME280;53703;50.326;19.122;2023-03-01T11:12:30;99678.70;;;18.63;37.11
66801;BME280;53703;50.326;19.122;2023-03-01T11:15:28;99674.42;;;18.60;37.12
66801;BME280;53703;50.326;19.122;2023-03-01T11:18:24;99675.92;;;18.66;37.14
66801;BME280;53703;50.326;19.122;2023-03-01T11:21:41;99678.22;;;18.62;37.23
66801;BME280;53703;50.326;19.122;2023-03-01T11:24:48;99671.23;;;18.61;37.10
66801;BME280;53703;50.326;19.122;2023-03-01T11:28:01;99665.32;;;18.57;37.34
66801;BME280;53703;50.326;19.122;2023-03-01T11:30:58;99666.83;;;18.66;37.03
66801;BME280;53703;50.326;19.122;2023-03-01T11:34:09;99661.60;;;18.63;37.11
66801;BME280;53703;50.326;19.122;2023-03-01T11:37:14;99654.19;;;18.62;37.08
66801;BME280;53703;50.326;19.122;2023-03-01T11:40:26;99657.57;;;18.59;37.14
66801;BME280;53703;50.326;19.122;2023-03-01T11:43:26;99659.48;;;18.65;37.08
66801;BME280;53703;50.326;19.122;2023-03-01T11:46:51;99665.27;;;18.07;36.05
66801;BME280;53703;50.326;19.122;2023-03-01T11:50:18;99661.85;;;17.00;32.19
66801;BME280;53703;50.326;19.122;2023-03-01T11:53:33;99659.27;;;18.47;35.10
66801;BME280;53703;50.326;19.122;2023-03-01T11:56:38;99654.73;;;18.28;36.65
66801;BME280;53703;50.326;19.122;2023-03-01T11:59:53;99653.85;;;18.26;36.69
66801;BME280;53703;50.326;19.122;2023-03-01T12:03:28;99646.84;;;18.48;35.75
66801;BME280;53703;50.326;19.122;2023-03-01T12:06:38;99639.55;;;18.50;35.48
66801;BME280;53703;50.326;19.122;2023-03-01T12:09:55;99631.81;;;18.45;35.90
66801;BME280;53703;50.326;19.122;2023-03-01T12:13:41;99622.38;;;18.38;36.05
66801;BME280;53703;50.326;19.122;2023-03-01T12:16:59;99623.30;;;18.75;35.48
66801;BME280;53703;50.326;19.122;2023-03-01T12:20:20;99621.63;;;18.48;35.59
66801;BME280;53703;50.326;19.122;2023-03-01T12:23:40;99620.53;;;18.46;35.54
66801;BME280;53703;50.326;19.122;2023-03-01T12:27:13;99622.56;;;18.50;35.38
66801;BME280;53703;50.326;19.122;2023-03-01T12:30:45;99621.65;;;18.54;36.39
66801;BME280;53703;50.326;19.122;2023-03-01T12:33:52;99617.47;;;16.49;28.38
66801;BME280;53703;50.326;19.122;2023-03-01T12:37:13;99624.10;;;15.70;26.51
66801;BME280;53703;50.326;19.122;2023-03-01T12:40:26;99615.77;;;15.15;25.54
66801;BME280;53703;50.326;19.122;2023-03-01T12:43:36;99599.91;;;17.23;32.38
66801;BME280;53703;50.326;19.122;2023-03-01T12:46:51;99591.47;;;17.95;33.18
66801;BME280;53703;50.326;19.122;2023-03-01T12:49:49;99589.73;;;18.15;32.93
66801;BME280;53703;50.326;19.122;2023-03-01T12:53:03;99590.91;;;18.18;33.27
66801;BME280;53703;50.326;19.122;2023-03-01T12:56:02;99592.38;;;18.16;33.33
66801;BME280;53703;50.326;19.122;2023-03-01T12:59:08;99586.94;;;18.18;33.19
66801;BME280;53703;50.326;19.122;2023-03-01T13:02:16;99578.84;;;18.22;33.75
66801;BME280;53703;50.326;19.122;2023-03-01T13:05:29;99579.06;;;18.25;35.07
66801;BME280;53703;50.326;19.122;2023-03-01T13:08:31;99576.55;;;18.31;36.09
66801;BME280;53703;50.326;19.122;2023-03-01T13:11:28;99572.93;;;18.54;36.45
66801;BME280;53703;50.326;19.122;2023-03-01T13:14:46;99567.92;;;18.38;37.47
66801;BME280;53703;50.326;19.122;2023-03-01T13:17:44;99565.23;;;18.34;37.37
66801;BME280;53703;50.326;19.122;2023-03-01T13:20:25;99566.84;;;18.26;37.49
66801;BME280;53703;50.326;19.122;2023-03-01T13:23:31;99570.79;;;18.35;39.08
66801;BME280;53703;50.326;19.122;2023-03-01T13:26:26;99570.39;;;18.26;38.36
66801;BME280;53703;50.326;19.122;2023-03-01T13:29:29;99567.23;;;18.20;38.57
66801;BME280;53703;50.326;19.122;2023-03-01T13:32:37;99567.54;;;18.20;40.18
66801;BME280;53703;50.326;19.122;2023-03-01T13:35:46;99566.19;;;18.16;39.88
66801;BME280;53703;50.326;19.122;2023-03-01T13:38:47;99565.77;;;18.19;39.84
66801;BME280;53703;50.326;19.122;2023-03-01T13:41:55;99561.51;;;18.19;39.37
66801;BME280;53703;50.326;19.122;2023-03-01T13:44:50;99557.46;;;18.43;38.21
66801;BME280;53703;50.326;19.122;2023-03-01T13:47:44;99547.62;;;18.50;37.79
66801;BME280;53703;50.326;19.122;2023-03-01T13:51:02;99546.80;;;18.22;40.52
66801;BME280;53703;50.326;19.122;2023-03-01T13:53:55;99543.96;;;18.11;41.57
66801;BME280;53703;50.326;19.122;2023-03-01T13:56:51;99545.11;;;18.12;40.26
66801;BME280;53703;50.326;19.122;2023-03-01T13:59:51;99541.52;;;18.08;41.49
66801;BME280;53703;50.326;19.122;2023-03-01T14:02:44;99539.04;;;18.04;41.67
66801;BME280;53703;50.326;19.122;2023-03-01T14:05:43;99544.33;;;18.15;41.30
66801;BME280;53703;50.326;19.122;2023-03-01T14:08:38;99536.61;;;18.13;40.95
66801;BME280;53703;50.326;19.122;2023-03-01T14:12:06;99530.41;;;18.06;39.36
66801;BME280;53703;50.326;19.122;2023-03-01T14:15:13;99523.09;;;18.01;39.34
66801;BME280;53703;50.326;19.122;2023-03-01T14:18:12;99527.97;;;18.15;37.83
66801;BME280;53703;50.326;19.122;2023-03-01T14:21:15;99528.48;;;18.13;38.76
66801;BME280;53703;50.326;19.122;2023-03-01T14:24:20;99524.85;;;18.06;38.52
66801;BME280;53703;50.326;19.122;2023-03-01T14:27:15;99519.63;;;18.22;38.39
66801;BME280;53703;50.326;19.122;2023-03-01T14:30:21;99520.01;;;18.07;37.93
66801;BME280;53703;50.326;19.122;2023-03-01T14:33:26;99513.55;;;18.07;37.90
66801;BME280;53703;50.326;19.122;2023-03-01T14:36:41;99509.94;;;18.04;37.87
66801;BME280;53703;50.326;19.122;2023-03-01T14:39:35;99513.79;;;18.11;37.94
66801;BME280;53703;50.326;19.122;2023-03-01T14:42:34;99507.05;;;18.03;38.42
66801;BME280;53703;50.326;19.122;2023-03-01T14:45:30;99501.48;;;18.02;38.12
66801;BME280;53703;50.326;19.122;2023-03-01T14:48:26;99502.55;;;18.08;38.32
66801;BME280;53703;50.326;19.122;2023-03-01T14:51:20;99500.52;;;18.01;38.02
66801;BME280;53703;50.326;19.122;2023-03-01T14:54:27;99503.50;;;18.01;38.28
66801;BME280;53703;50.326;19.122;2023-03-01T14:57:23;99502.98;;;18.14;38.06
66801;BME280;53703;50.326;19.122;2023-03-01T15:00:23;99502.69;;;18.01;37.65
66801;BME280;53703;50.326;19.122;2023-03-01T15:03:26;99497.99;;;17.94;38.09
66801;BME280;53703;50.326;19.122;2023-03-01T15:06:24;99497.96;;;17.93;38.03
66801;BME280;53703;50.326;19.122;2023-03-01T15:09:18;99496.67;;;17.92;38.17
66801;BME280;53703;50.326;19.122;2023-03-01T15:12:40;99494.05;;;17.83;38.47
66801;BME280;53703;50.326;19.122;2023-03-01T15:15:42;99493.04;;;17.86;37.86
66801;BME280;53703;50.326;19.122;2023-03-01T15:18:42;99494.73;;;18.01;38.53
66801;BME280;53703;50.326;19.122;2023-03-01T15:21:38;99494.86;;;17.93;38.08
66801;BME280;53703;50.326;19.122;2023-03-01T15:24:34;99491.96;;;17.88;37.65
66801;BME280;53703;50.326;19.122;2023-03-01T15:27:28;99492.10;;;17.82;37.68
66801;BME280;53703;50.326;19.122;2023-03-01T15:30:25;99488.54;;;17.78;37.73
66801;BME280;53703;50.326;19.122;2023-03-01T15:33:31;99488.95;;;17.72;37.63